sensor_id;sensor_type;location;lat;lon;timestamp;P1;durP1;ratioP1;P2;durP2;ratioP2
28762;SDS011;15918;51.270;6.522;2022-10-31T00:00:54;16.98;;;10.82;;
28762;SDS011;15918;51.270;6.522;2022-10-31T00:03:19;16.33;;;11.00;;
28762;SDS011;15918;51.270;6.522;2022-10-31T00:05:46;16.63;;;10.35;;
28762;SDS011;15918;51.270;6.522;2022-10-31T00:08:13;18.40;;;10.35;;
28762;SDS011;15918;51.270;6.522;2022-10-31T00:10:40;15.98;;;11.18;;
28762;SDS011;15918;51.270;6.522;2022-10-31T00:13:07;16.85;;;10.57;;
28762;SDS011;15918;51.270;6.522;2022-10-31T00:15:37;19.40;;;11.40;;
28762;SDS011;15918;51.270;6.522;2022-10-31T00:18:04;18.13;;;11.57;;
28762;SDS011;15918;51.270;6.522;2022-10-31T00:20:30;15.95;;;11.85;;
28762;SDS011;15918;51.270;6.522;2022-10-31T00:22:59;20.92;;;12.25;;
28762;SDS011;15918;51.270;6.522;2022-10-31T00:25:26;15.75;;;10.80;;
28762;SDS011;15918;51.270;6.522;2022-10-31T00:27:53;13.70;;;10.98;;
28762;SDS011;15918;51.270;6.522;2022-10-31T00:30:19;16.10;;;10.85;;
28762;SDS011;15918;51.270;6.522;2022-10-31T00:32:45;13.30;;;9.93;;
28762;SDS011;15918;51.270;6.522;2022-10-31T00:35:10;15.88;;;9.82;;
28762;SDS011;15918;51.270;6.522;2022-10-31T00:37:36;13.60;;;10.32;;
28762;SDS011;15918;51.270;6.522;2022-10-31T00:40:01;18.63;;;11.93;;
28762;SDS011;15918;51.270;6.522;2022-10-31T00:42:27;16.40;;;10.85;;
28762;SDS011;15918;51.270;6.522;2022-10-31T00:44:53;14.60;;;10.88;;
28762;SDS011;15918;51.270;6.522;2022-10-31T00:47:18;14.88;;;10.80;;
28762;SDS011;15918;51.270;6.522;2022-10-31T00:49:44;16.48;;;10.27;;
28762;SDS011;15918;51.270;6.522;2022-10-31T00:52:09;16.83;;;10.75;;
28762;SDS011;15918;51.270;6.522;2022-10-31T00:54:35;16.25;;;10.95;;
28762;SDS011;15918;51.270;6.522;2022-10-31T00:57:00;16.60;;;11.30;;
28762;SDS011;15918;51.270;6.522;2022-10-31T00:59:26;15.80;;;11.35;;
28762;SDS011;15918;51.270;6.522;2022-10-31T01:01:52;13.68;;;10.15;;
28762;SDS011;15918;51.270;6.522;2022-10-31T01:04:17;16.27;;;10.88;;
28762;SDS011;15918;51.270;6.522;2022-10-31T01:06:43;15.40;;;10.90;;
28762;SDS011;15918;51.270;6.522;2022-10-31T01:09:08;13.80;;;10.60;;
28762;SDS011;15918;51.270;6.522;2022-10-31T01:11:34;13.68;;;10.10;;
28762;SDS011;15918;51.270;6.522;2022-10-31T01:13:59;16.55;;;10.23;;
28762;SDS011;15918;51.270;6.522;2022-10-31T01:16:25;17.88;;;10.80;;
28762;SDS011;15918;51.270;6.522;2022-10-31T01:18:52;15.30;;;11.68;;
28762;SDS011;15918;51.270;6.522;2022-10-31T01:21:19;15.25;;;10.82;;
28762;SDS011;15918;51.270;6.522;2022-10-31T01:23:49;15.27;;;10.90;;
28762;SDS011;15918;51.270;6.522;2022-10-31T01:26:21;16.60;;;10.70;;
28762;SDS011;15918;51.270;6.522;2022-10-31T01:28:55;15.77;;;10.77;;
28762;SDS011;15918;51.270;6.522;2022-10-31T01:31:30;15.25;;;10.43;;
28762;SDS011;15918;51.270;6.522;2022-10-31T01:33:58;15.70;;;11.13;;
28762;SDS011;15918;51.270;6.522;2022-10-31T01:36:25;17.55;;;10.75;;
28762;SDS011;15918;51.270;6.522;2022-10-31T01:38:54;16.38;;;10.02;;
28762;SDS011;15918;51.270;6.522;2022-10-31T01:41:23;20.23;;;12.05;;
28762;SDS011;15918;51.270;6.522;2022-10-31T01:46:29;17.30;;;11.18;;
28762;SDS011;15918;51.270;6.522;2022-10-31T01:48:59;14.80;;;10.65;;
28762;SDS011;15918;51.270;6.522;2022-10-31T01:51:28;14.45;;;10.82;;
28762;SDS011;15918;51.270;6.522;2022-10-31T01:53:58;19.60;;;10.85;;
28762;SDS011;15918;51.270;6.522;2022-10-31T01:56:29;16.90;;;11.48;;
28762;SDS011;15918;51.270;6.522;2022-10-31T01:58:56;17.95;;;10.85;;
28762;SDS011;15918;51.270;6.522;2022-10-31T02:01:24;15.38;;;10.75;;
28762;SDS011;15918;51.270;6.522;2022-10-31T02:03:50;18.48;;;11.88;;
28762;SDS011;15918;51.270;6.522;2022-10-31T02:06:38;14.05;;;11.25;;
28762;SDS011;15918;51.270;6.522;2022-10-31T02:09:20;16.45;;;12.65;;
28762;SDS011;15918;51.270;6.522;2022-10-31T02:11:49;15.45;;;11.35;;
28762;SDS011;15918;51.270;6.522;2022-10-31T02:14:24;15.82;;;10.75;;
28762;SDS011;15918;51.270;6.522;2022-10-31T02:16:53;16.05;;;10.48;;
28762;SDS011;15918;51.270;6.522;2022-10-31T02:19:22;14.93;;;11.38;;
28762;SDS011;15918;51.270;6.522;2022-10-31T02:22:01;20.13;;;12.35;;
28762;SDS011;15918;51.270;6.522;2022-10-31T02:24:43;18.33;;;11.50;;
28762;SDS011;15918;51.270;6.522;2022-10-31T02:30:18;16.55;;;11.13;;
28762;SDS011;15918;51.270;6.522;2022-10-31T02:32:52;21.48;;;10.75;;
28762;SDS011;15918;51.270;6.522;2022-10-31T02:43:50;15.52;;;11.60;;
28762;SDS011;15918;51.270;6.522;2022-10-31T02:46:34;14.55;;;11.13;;
28762;SDS011;15918;51.270;6.522;2022-10-31T02:55:41;13.30;;;9.38;;
28762;SDS011;15918;51.270;6.522;2022-10-31T02:58:00;17.63;;;11.25;;
28762;SDS011;15918;51.270;6.522;2022-10-31T03:00:33;13.10;;;10.32;;
28762;SDS011;15918;51.270;6.522;2022-10-31T03:03:25;17.40;;;11.18;;
28762;SDS011;15918;51.270;6.522;2022-10-31T03:06:00;13.23;;;10.40;;
28762;SDS011;15918;51.270;6.522;2022-10-31T03:11:20;12.80;;;10.30;;
28762;SDS011;15918;51.270;6.522;2022-10-31T03:13:54;14.98;;;10.73;;
28762;SDS011;15918;51.270;6.522;2022-10-31T03:18:53;14.35;;;10.57;;
28762;SDS011;15918;51.270;6.522;2022-10-31T03:21:30;13.98;;;9.82;;
28762;SDS011;15918;51.270;6.522;2022-10-31T03:23:58;16.00;;;10.75;;
28762;SDS011;15918;51.270;6.522;2022-10-31T03:26:25;19.08;;;11.68;;
28762;SDS011;15918;51.270;6.522;2022-10-31T03:28:58;11.68;;;9.82;;
28762;SDS011;15918;51.270;6.522;2022-10-31T03:31:29;13.35;;;10.45;;
28762;SDS011;15918;51.270;6.522;2022-10-31T03:34:00;15.85;;;10.45;;
28762;SDS011;15918;51.270;6.522;2022-10-31T03:36:28;14.27;;;10.55;;
28762;SDS011;15918;51.270;6.522;2022-10-31T03:38:57;15.70;;;10.77;;
28762;SDS011;15918;51.270;6.522;2022-10-31T03:41:27;15.48;;;10.52;;
28762;SDS011;15918;51.270;6.522;2022-10-31T03:44:01;13.98;;;10.05;;
28762;SDS011;15918;51.270;6.522;2022-10-31T03:46:31;15.52;;;10.85;;
28762;SDS011;15918;51.270;6.522;2022-10-31T03:48:57;16.33;;;10.60;;
28762;SDS011;15918;51.270;6.522;2022-10-31T03:54:04;13.63;;;10.15;;
28762;SDS011;15918;51.270;6.522;2022-10-31T03:56:59;14.25;;;10.07;;
28762;SDS011;15918;51.270;6.522;2022-10-31T03:59:39;14.77;;;10.13;;
28762;SDS011;15918;51.270;6.522;2022-10-31T04:02:18;15.63;;;11.05;;
28762;SDS011;15918;51.270;6.522;2022-10-31T04:04:50;15.88;;;10.57;;
28762;SDS011;15918;51.270;6.522;2022-10-31T04:07:16;17.42;;;11.75;;
28762;SDS011;15918;51.270;6.522;2022-10-31T04:09:44;15.25;;;11.20;;
28762;SDS011;15918;51.270;6.522;2022-10-31T04:12:12;15.18;;;11.27;;
28762;SDS011;15918;51.270;6.522;2022-10-31T04:14:41;14.05;;;10.63;;
28762;SDS011;15918;51.270;6.522;2022-10-31T04:17:10;16.23;;;10.32;;
28762;SDS011;15918;51.270;6.522;2022-10-31T04:19:39;15.00;;;10.32;;
28762;SDS011;15918;51.270;6.522;2022-10-31T04:22:05;16.67;;;10.40;;
28762;SDS011;15918;51.270;6.522;2022-10-31T04:24:31;10.07;;;8.80;;
28762;SDS011;15918;51.270;6.522;2022-10-31T04:26:57;13.88;;;9.82;;
28762;SDS011;15918;51.270;6.522;2022-10-31T04:29:22;10.32;;;9.10;;
28762;SDS011;15918;51.270;6.522;2022-10-31T04:31:48;14.07;;;9.27;;
28762;SDS011;15918;51.270;6.522;2022-10-31T04:34:14;12.07;;;9.40;;
28762;SDS011;15918;51.270;6.522;2022-10-31T04:36:39;12.82;;;9.23;;
28762;SDS011;15918;51.270;6.522;2022-10-31T04:39:05;15.30;;;9.93;;
28762;SDS011;15918;51.270;6.522;2022-10-31T04:41:30;11.90;;;8.80;;
28762;SDS011;15918;51.270;6.522;2022-10-31T04:43:56;14.90;;;10.07;;
28762;SDS011;15918;51.270;6.522;2022-10-31T04:46:21;12.80;;;9.20;;
28762;SDS011;15918;51.270;6.522;2022-10-31T04:48:47;14.90;;;9.32;;
28762;SDS011;15918;51.270;6.522;2022-10-31T04:51:13;13.52;;;9.27;;
28762;SDS011;15918;51.270;6.522;2022-10-31T04:53:39;13.95;;;9.27;;
28762;SDS011;15918;51.270;6.522;2022-10-31T04:56:04;11.52;;;8.98;;
28762;SDS011;15918;51.270;6.522;2022-10-31T04:58:30;13.15;;;9.90;;
28762;SDS011;15918;51.270;6.522;2022-10-31T05:00:56;15.63;;;10.10;;
28762;SDS011;15918;51.270;6.522;2022-10-31T05:03:22;14.98;;;9.73;;
28762;SDS011;15918;51.270;6.522;2022-10-31T05:05:48;13.48;;;9.55;;
28762;SDS011;15918;51.270;6.522;2022-10-31T05:08:14;10.85;;;9.07;;
28762;SDS011;15918;51.270;6.522;2022-10-31T05:10:39;12.68;;;8.90;;
28762;SDS011;15918;51.270;6.522;2022-10-31T05:13:05;11.05;;;9.32;;
28762;SDS011;15918;51.270;6.522;2022-10-31T05:15:31;17.58;;;10.13;;
28762;SDS011;15918;51.270;6.522;2022-10-31T05:17:57;13.73;;;10.38;;
28762;SDS011;15918;51.270;6.522;2022-10-31T05:20:24;11.90;;;9.75;;
28762;SDS011;15918;51.270;6.522;2022-10-31T05:22:52;14.10;;;10.07;;
28762;SDS011;15918;51.270;6.522;2022-10-31T05:25:20;11.35;;;9.90;;
28762;SDS011;15918;51.270;6.522;2022-10-31T05:27:48;13.88;;;8.98;;
28762;SDS011;15918;51.270;6.522;2022-10-31T05:30:16;13.07;;;10.43;;
28762;SDS011;15918;51.270;6.522;2022-10-31T05:32:47;13.27;;;8.88;;
28762;SDS011;15918;51.270;6.522;2022-10-31T05:35:18;13.52;;;9.77;;
28762;SDS011;15918;51.270;6.522;2022-10-31T05:37:45;13.88;;;9.73;;
28762;SDS011;15918;51.270;6.522;2022-10-31T05:40:12;14.32;;;9.15;;
28762;SDS011;15918;51.270;6.522;2022-10-31T05:42:39;11.48;;;9.77;;
28762;SDS011;15918;51.270;6.522;2022-10-31T05:45:06;13.32;;;8.90;;
28762;SDS011;15918;51.270;6.522;2022-10-31T05:47:36;15.38;;;9.48;;
28762;SDS011;15918;51.270;6.522;2022-10-31T05:50:02;14.63;;;10.05;;
28762;SDS011;15918;51.270;6.522;2022-10-31T05:52:28;14.43;;;9.98;;
28762;SDS011;15918;51.270;6.522;2022-10-31T05:54:54;13.02;;;9.88;;
28762;SDS011;15918;51.270;6.522;2022-10-31T05:57:20;13.50;;;9.18;;
28762;SDS011;15918;51.270;6.522;2022-10-31T05:59:45;14.05;;;9.80;;
28762;SDS011;15918;51.270;6.522;2022-10-31T06:02:11;15.55;;;9.85;;
28762;SDS011;15918;51.270;6.522;2022-10-31T06:04:36;15.48;;;10.02;;
28762;SDS011;15918;51.270;6.522;2022-10-31T06:07:02;10.70;;;9.10;;
28762;SDS011;15918;51.270;6.522;2022-10-31T06:09:27;16.48;;;10.13;;
28762;SDS011;15918;51.270;6.522;2022-10-31T06:11:53;16.00;;;10.00;;
28762;SDS011;15918;51.270;6.522;2022-10-31T06:14:18;12.85;;;9.98;;
28762;SDS011;15918;51.270;6.522;2022-10-31T06:16:44;14.75;;;9.57;;
28762;SDS011;15918;51.270;6.522;2022-10-31T06:19:09;14.43;;;9.35;;
28762;SDS011;15918;51.270;6.522;2022-10-31T06:21:35;18.40;;;10.05;;
28762;SDS011;15918;51.270;6.522;2022-10-31T06:24:01;15.93;;;9.52;;
28762;SDS011;15918;51.270;6.522;2022-10-31T06:26:26;14.10;;;9.88;;
28762;SDS011;15918;51.270;6.522;2022-10-31T06:28:52;15.40;;;10.45;;
28762;SDS011;15918;51.270;6.522;2022-10-31T06:31:17;15.85;;;10.68;;
28762;SDS011;15918;51.270;6.522;2022-10-31T06:33:43;17.63;;;9.43;;
28762;SDS011;15918;51.270;6.522;2022-10-31T06:36:09;16.33;;;9.88;;
28762;SDS011;15918;51.270;6.522;2022-10-31T06:38:35;17.73;;;9.85;;
28762;SDS011;15918;51.270;6.522;2022-10-31T06:41:04;15.70;;;9.70;;
28762;SDS011;15918;51.270;6.522;2022-10-31T06:43:30;18.20;;;10.82;;
28762;SDS011;15918;51.270;6.522;2022-10-31T06:45:55;11.63;;;9.70;;
28762;SDS011;15918;51.270;6.522;2022-10-31T06:48:21;15.77;;;9.38;;
28762;SDS011;15918;51.270;6.522;2022-10-31T06:50:47;14.55;;;9.75;;
28762;SDS011;15918;51.270;6.522;2022-10-31T06:53:13;14.95;;;9.00;;
28762;SDS011;15918;51.270;6.522;2022-10-31T06:55:39;13.68;;;9.55;;
28762;SDS011;15918;51.270;6.522;2022-10-31T06:58:05;16.02;;;9.27;;
28762;SDS011;15918;51.270;6.522;2022-10-31T07:00:31;18.40;;;10.18;;
28762;SDS011;15918;51.270;6.522;2022-10-31T07:02:58;20.52;;;9.93;;
28762;SDS011;15918;51.270;6.522;2022-10-31T07:05:29;15.00;;;9.05;;
28762;SDS011;15918;51.270;6.522;2022-10-31T07:08:04;15.65;;;9.63;;
28762;SDS011;15918;51.270;6.522;2022-10-31T07:10:32;16.88;;;9.60;;
28762;SDS011;15918;51.270;6.522;2022-10-31T07:13:00;21.15;;;9.73;;
28762;SDS011;15918;51.270;6.522;2022-10-31T07:15:27;18.95;;;9.95;;
28762;SDS011;15918;51.270;6.522;2022-10-31T07:18:04;13.57;;;9.50;;
28762;SDS011;15918;51.270;6.522;2022-10-31T07:20:33;16.02;;;9.75;;
28762;SDS011;15918;51.270;6.522;2022-10-31T07:22:59;16.88;;;9.43;;
28762;SDS011;15918;51.270;6.522;2022-10-31T07:25:25;15.63;;;10.18;;
28762;SDS011;15918;51.270;6.522;2022-10-31T07:27:52;18.35;;;9.90;;
28762;SDS011;15918;51.270;6.522;2022-10-31T07:30:18;17.17;;;9.48;;
28762;SDS011;15918;51.270;6.522;2022-10-31T07:32:45;16.17;;;9.07;;
28762;SDS011;15918;51.270;6.522;2022-10-31T07:35:13;13.38;;;9.73;;
28762;SDS011;15918;51.270;6.522;2022-10-31T07:37:39;20.70;;;9.82;;
28762;SDS011;15918;51.270;6.522;2022-10-31T07:40:06;17.67;;;9.57;;
28762;SDS011;15918;51.270;6.522;2022-10-31T07:42:39;17.90;;;9.88;;
28762;SDS011;15918;51.270;6.522;2022-10-31T07:45:07;16.90;;;10.15;;
28762;SDS011;15918;51.270;6.522;2022-10-31T07:47:40;17.33;;;10.20;;
28762;SDS011;15918;51.270;6.522;2022-10-31T07:50:07;17.73;;;10.38;;
28762;SDS011;15918;51.270;6.522;2022-10-31T07:52:34;21.38;;;10.00;;
28762;SDS011;15918;51.270;6.522;2022-10-31T07:55:00;14.75;;;10.50;;
28762;SDS011;15918;51.270;6.522;2022-10-31T07:57:26;17.95;;;10.13;;
28762;SDS011;15918;51.270;6.522;2022-10-31T07:59:52;21.73;;;10.65;;
28762;SDS011;15918;51.270;6.522;2022-10-31T08:02:17;15.60;;;10.05;;
28762;SDS011;15918;51.270;6.522;2022-10-31T08:04:43;16.10;;;9.63;;
28762;SDS011;15918;51.270;6.522;2022-10-31T08:07:08;19.60;;;9.75;;
28762;SDS011;15918;51.270;6.522;2022-10-31T08:09:34;15.23;;;9.98;;
28762;SDS011;15918;51.270;6.522;2022-10-31T08:12:00;17.30;;;9.90;;
28762;SDS011;15918;51.270;6.522;2022-10-31T08:14:26;20.00;;;9.48;;
28762;SDS011;15918;51.270;6.522;2022-10-31T08:16:53;15.73;;;9.10;;
28762;SDS011;15918;51.270;6.522;2022-10-31T08:19:19;14.18;;;9.75;;
28762;SDS011;15918;51.270;6.522;2022-10-31T08:21:44;17.15;;;9.95;;
28762;SDS011;15918;51.270;6.522;2022-10-31T08:24:10;15.65;;;10.02;;
28762;SDS011;15918;51.270;6.522;2022-10-31T08:26:36;15.48;;;10.00;;
28762;SDS011;15918;51.270;6.522;2022-10-31T08:29:01;18.42;;;9.80;;
28762;SDS011;15918;51.270;6.522;2022-10-31T08:31:27;16.90;;;9.82;;
28762;SDS011;15918;51.270;6.522;2022-10-31T08:33:53;18.77;;;10.60;;
28762;SDS011;15918;51.270;6.522;2022-10-31T08:36:19;19.70;;;11.00;;
28762;SDS011;15918;51.270;6.522;2022-10-31T08:38:48;17.27;;;10.55;;
28762;SDS011;15918;51.270;6.522;2022-10-31T08:41:14;17.05;;;10.48;;
28762;SDS011;15918;51.270;6.522;2022-10-31T08:43:40;21.92;;;10.80;;
28762;SDS011;15918;51.270;6.522;2022-10-31T08:46:05;19.35;;;11.32;;
28762;SDS011;15918;51.270;6.522;2022-10-31T08:48:31;22.70;;;11.45;;
28762;SDS011;15918;51.270;6.522;2022-10-31T08:50:57;18.70;;;12.07;;
28762;SDS011;15918;51.270;6.522;2022-10-31T08:53:24;20.65;;;11.07;;
28762;SDS011;15918;51.270;6.522;2022-10-31T08:55:50;23.70;;;11.18;;
28762;SDS011;15918;51.270;6.522;2022-10-31T08:58:18;21.35;;;10.98;;
28762;SDS011;15918;51.270;6.522;2022-10-31T09:00:45;20.42;;;11.13;;
28762;SDS011;15918;51.270;6.522;2022-10-31T09:03:13;20.50;;;11.80;;
28762;SDS011;15918;51.270;6.522;2022-10-31T09:05:46;22.38;;;11.98;;
28762;SDS011;15918;51.270;6.522;2022-10-31T09:08:12;20.65;;;12.02;;
28762;SDS011;15918;51.270;6.522;2022-10-31T09:10:39;19.38;;;11.70;;
28762;SDS011;15918;51.270;6.522;2022-10-31T09:13:05;20.65;;;12.15;;
28762;SDS011;15918;51.270;6.522;2022-10-31T09:15:35;20.42;;;11.45;;
28762;SDS011;15918;51.270;6.522;2022-10-31T09:18:03;18.70;;;11.50;;
28762;SDS011;15918;51.270;6.522;2022-10-31T09:20:30;23.73;;;12.43;;
28762;SDS011;15918;51.270;6.522;2022-10-31T09:23:00;18.08;;;12.70;;
28762;SDS011;15918;51.270;6.522;2022-10-31T09:25:28;26.17;;;13.73;;
28762;SDS011;15918;51.270;6.522;2022-10-31T09:27:55;20.08;;;12.93;;
28762;SDS011;15918;51.270;6.522;2022-10-31T09:30:25;25.27;;;13.70;;
28762;SDS011;15918;51.270;6.522;2022-10-31T09:32:55;23.73;;;12.88;;
28762;SDS011;15918;51.270;6.522;2022-10-31T09:35:22;21.15;;;13.48;;
28762;SDS011;15918;51.270;6.522;2022-10-31T09:37:53;18.02;;;12.52;;
28762;SDS011;15918;51.270;6.522;2022-10-31T09:51:27;22.70;;;15.43;;
28762;SDS011;15918;51.270;6.522;2022-10-31T09:54:04;26.27;;;15.48;;
28762;SDS011;15918;51.270;6.522;2022-10-31T09:56:34;27.27;;;12.95;;
28762;SDS011;15918;51.270;6.522;2022-10-31T09:59:01;24.30;;;14.70;;
28762;SDS011;15918;51.270;6.522;2022-10-31T10:07:21;31.10;;;17.17;;
28762;SDS011;15918;51.270;6.522;2022-10-31T10:09:55;26.55;;;16.77;;
28762;SDS011;15918;51.270;6.522;2022-10-31T10:23:39;25.17;;;16.58;;
28762;SDS011;15918;51.270;6.522;2022-10-31T10:26:22;35.22;;;16.75;;
28762;SDS011;15918;51.270;6.522;2022-10-31T10:29:01;30.48;;;16.38;;
28762;SDS011;15918;51.270;6.522;2022-10-31T10:31:42;25.30;;;15.60;;
28762;SDS011;15918;51.270;6.522;2022-10-31T10:36:58;24.63;;;16.63;;
28762;SDS011;15918;51.270;6.522;2022-10-31T10:39:35;29.70;;;15.95;;
28762;SDS011;15918;51.270;6.522;2022-10-31T10:42:13;30.25;;;15.75;;
28762;SDS011;15918;51.270;6.522;2022-10-31T10:44:59;24.98;;;15.48;;
28762;SDS011;15918;51.270;6.522;2022-10-31T10:47:50;31.20;;;16.52;;
28762;SDS011;15918;51.270;6.522;2022-10-31T10:50:30;26.30;;;15.02;;
28762;SDS011;15918;51.270;6.522;2022-10-31T10:53:15;26.58;;;15.25;;
28762;SDS011;15918;51.270;6.522;2022-10-31T10:56:18;26.85;;;15.82;;
28762;SDS011;15918;51.270;6.522;2022-10-31T10:58:54;25.80;;;16.20;;
28762;SDS011;15918;51.270;6.522;2022-10-31T11:01:22;34.30;;;15.10;;
28762;SDS011;15918;51.270;6.522;2022-10-31T11:03:48;33.88;;;16.42;;
28762;SDS011;15918;51.270;6.522;2022-10-31T11:06:21;29.08;;;14.82;;
28762;SDS011;15918;51.270;6.522;2022-10-31T11:08:50;35.30;;;15.88;;
28762;SDS011;15918;51.270;6.522;2022-10-31T11:13:44;32.17;;;15.88;;
28762;SDS011;15918;51.270;6.522;2022-10-31T11:16:27;36.08;;;16.90;;
28762;SDS011;15918;51.270;6.522;2022-10-31T11:19:12;29.30;;;15.38;;
28762;SDS011;15918;51.270;6.522;2022-10-31T11:21:41;27.60;;;15.63;;
28762;SDS011;15918;51.270;6.522;2022-10-31T11:26:35;29.20;;;15.48;;
28762;SDS011;15918;51.270;6.522;2022-10-31T11:29:05;31.88;;;16.98;;
28762;SDS011;15918;51.270;6.522;2022-10-31T11:31:38;36.00;;;16.10;;
28762;SDS011;15918;51.270;6.522;2022-10-31T11:34:06;24.33;;;15.13;;
28762;SDS011;15918;51.270;6.522;2022-10-31T11:36:39;31.52;;;15.30;;
28762;SDS011;15918;51.270;6.522;2022-10-31T11:39:22;28.83;;;16.58;;
28762;SDS011;15918;51.270;6.522;2022-10-31T11:41:50;26.85;;;15.60;;
28762;SDS011;15918;51.270;6.522;2022-10-31T11:44:18;22.52;;;13.90;;
28762;SDS011;15918;51.270;6.522;2022-10-31T11:47:00;26.60;;;15.10;;
28762;SDS011;15918;51.270;6.522;2022-10-31T11:49:35;29.40;;;15.75;;
28762;SDS011;15918;51.270;6.522;2022-10-31T11:52:14;25.05;;;15.38;;
28762;SDS011;15918;51.270;6.522;2022-10-31T11:54:46;30.08;;;16.15;;
28762;SDS011;15918;51.270;6.522;2022-10-31T11:57:32;24.15;;;15.13;;
28762;SDS011;15918;51.270;6.522;2022-10-31T12:00:17;25.23;;;13.40;;
28762;SDS011;15918;51.270;6.522;2022-10-31T12:03:03;25.80;;;14.15;;
28762;SDS011;15918;51.270;6.522;2022-10-31T12:05:36;24.00;;;13.77;;
28762;SDS011;15918;51.270;6.522;2022-10-31T12:08:06;24.92;;;12.77;;
28762;SDS011;15918;51.270;6.522;2022-10-31T12:11:09;24.48;;;13.05;;
28762;SDS011;15918;51.270;6.522;2022-10-31T12:17:18;24.55;;;12.07;;
28762;SDS011;15918;51.270;6.522;2022-10-31T12:24:57;23.77;;;10.93;;
28762;SDS011;15918;51.270;6.522;2022-10-31T12:28:03;19.08;;;10.30;;
28762;SDS011;15918;51.270;6.522;2022-10-31T12:30:56;19.58;;;9.90;;
28762;SDS011;15918;51.270;6.522;2022-10-31T12:41:56;17.80;;;9.82;;
28762;SDS011;15918;51.270;6.522;2022-10-31T12:58:14;19.23;;;9.73;;
28762;SDS011;15918;51.270;6.522;2022-10-31T13:00:43;20.40;;;9.13;;
28762;SDS011;15918;51.270;6.522;2022-10-31T13:03:23;23.15;;;9.75;;
28762;SDS011;15918;51.270;6.522;2022-10-31T13:05:59;21.42;;;9.35;;
28762;SDS011;15918;51.270;6.522;2022-10-31T13:08:39;30.98;;;10.75;;
28762;SDS011;15918;51.270;6.522;2022-10-31T13:11:12;19.65;;;8.57;;
28762;SDS011;15918;51.270;6.522;2022-10-31T13:16:20;13.98;;;8.57;;
28762;SDS011;15918;51.270;6.522;2022-10-31T13:18:57;21.52;;;8.80;;
28762;SDS011;15918;51.270;6.522;2022-10-31T13:21:25;15.65;;;8.82;;
28762;SDS011;15918;51.270;6.522;2022-10-31T13:23:58;16.58;;;8.77;;
28762;SDS011;15918;51.270;6.522;2022-10-31T13:26:36;21.00;;;8.93;;
28762;SDS011;15918;51.270;6.522;2022-10-31T13:31:42;18.77;;;8.63;;
28762;SDS011;15918;51.270;6.522;2022-10-31T13:34:30;15.18;;;7.75;;
28762;SDS011;15918;51.270;6.522;2022-10-31T13:43:14;16.85;;;7.38;;
28762;SDS011;15918;51.270;6.522;2022-10-31T13:45:15;14.33;;;7.60;;
28762;SDS011;15918;51.270;6.522;2022-10-31T13:47:43;20.80;;;7.95;;
28762;SDS011;15918;51.270;6.522;2022-10-31T13:55:46;22.77;;;8.43;;
28762;SDS011;15918;51.270;6.522;2022-10-31T13:58:21;19.80;;;7.82;;
28762;SDS011;15918;51.270;6.522;2022-10-31T14:00:57;16.35;;;7.68;;
28762;SDS011;15918;51.270;6.522;2022-10-31T14:03:36;21.27;;;7.63;;
28762;SDS011;15918;51.270;6.522;2022-10-31T14:06:03;12.88;;;7.13;;
28762;SDS011;15918;51.270;6.522;2022-10-31T14:08:30;13.35;;;7.70;;
28762;SDS011;15918;51.270;6.522;2022-10-31T14:10:59;16.80;;;8.00;;
28762;SDS011;15918;51.270;6.522;2022-10-31T14:13:29;21.65;;;7.60;;
28762;SDS011;15918;51.270;6.522;2022-10-31T14:16:03;20.45;;;8.40;;
28762;SDS011;15918;51.270;6.522;2022-10-31T14:18:37;17.48;;;7.60;;
28762;SDS011;15918;51.270;6.522;2022-10-31T14:23:50;16.00;;;6.85;;
28762;SDS011;15918;51.270;6.522;2022-10-31T14:28:52;26.02;;;8.35;;
28762;SDS011;15918;51.270;6.522;2022-10-31T14:31:41;20.20;;;7.85;;
28762;SDS011;15918;51.270;6.522;2022-10-31T14:36:46;19.83;;;6.90;;
28762;SDS011;15918;51.270;6.522;2022-10-31T14:39:26;18.00;;;7.55;;
28762;SDS011;15918;51.270;6.522;2022-10-31T14:47:41;15.20;;;6.50;;
28762;SDS011;15918;51.270;6.522;2022-10-31T14:50:29;17.42;;;6.93;;
28762;SDS011;15918;51.270;6.522;2022-10-31T14:53:19;16.35;;;6.55;;
28762;SDS011;15918;51.270;6.522;2022-10-31T14:55:52;14.30;;;6.80;;
28762;SDS011;15918;51.270;6.522;2022-10-31T14:58:33;15.55;;;6.60;;
28762;SDS011;15918;51.270;6.522;2022-10-31T15:01:21;12.98;;;6.38;;
28762;SDS011;15918;51.270;6.522;2022-10-31T15:03:57;18.95;;;7.13;;
28762;SDS011;15918;51.270;6.522;2022-10-31T15:06:27;17.80;;;6.85;;
28762;SDS011;15918;51.270;6.522;2022-10-31T15:09:01;23.67;;;6.57;;
28762;SDS011;15918;51.270;6.522;2022-10-31T15:11:26;14.93;;;6.32;;
28762;SDS011;15918;51.270;6.522;2022-10-31T15:13:53;12.05;;;6.30;;
28762;SDS011;15918;51.270;6.522;2022-10-31T15:16:33;16.50;;;6.03;;
28762;SDS011;15918;51.270;6.522;2022-10-31T15:19:04;16.60;;;5.88;;
28762;SDS011;15918;51.270;6.522;2022-10-31T15:21:39;17.65;;;5.93;;
28762;SDS011;15918;51.270;6.522;2022-10-31T15:24:09;14.18;;;7.18;;
28762;SDS011;15918;51.270;6.522;2022-10-31T15:26:40;12.85;;;5.38;;
28762;SDS011;15918;51.270;6.522;2022-10-31T15:29:14;11.88;;;5.88;;
28762;SDS011;15918;51.270;6.522;2022-10-31T15:34:19;14.70;;;6.03;;
28762;SDS011;15918;51.270;6.522;2022-10-31T15:37:09;15.02;;;6.05;;
28762;SDS011;15918;51.270;6.522;2022-10-31T15:39:37;12.88;;;5.85;;
28762;SDS011;15918;51.270;6.522;2022-10-31T15:42:02;11.05;;;6.00;;
28762;SDS011;15918;51.270;6.522;2022-10-31T15:44:33;13.88;;;6.05;;
28762;SDS011;15918;51.270;6.522;2022-10-31T15:47:02;15.55;;;6.30;;
28762;SDS011;15918;51.270;6.522;2022-10-31T15:49:49;13.90;;;6.13;;
28762;SDS011;15918;51.270;6.522;2022-10-31T15:55:27;18.63;;;6.53;;
28762;SDS011;15918;51.270;6.522;2022-10-31T15:57:56;20.35;;;5.97;;
28762;SDS011;15918;51.270;6.522;2022-10-31T16:00:44;13.13;;;6.43;;
28762;SDS011;15918;51.270;6.522;2022-10-31T16:03:31;13.32;;;6.10;;
28762;SDS011;15918;51.270;6.522;2022-10-31T16:05:57;13.18;;;6.13;;
28762;SDS011;15918;51.270;6.522;2022-10-31T16:10:56;13.65;;;5.75;;
28762;SDS011;15918;51.270;6.522;2022-10-31T16:13:32;14.35;;;5.65;;
28762;SDS011;15918;51.270;6.522;2022-10-31T16:16:01;14.07;;;7.13;;
28762;SDS011;15918;51.270;6.522;2022-10-31T16:18:34;7.78;;;5.18;;
28762;SDS011;15918;51.270;6.522;2022-10-31T16:21:02;14.02;;;5.70;;
28762;SDS011;15918;51.270;6.522;2022-10-31T16:23:28;12.65;;;5.97;;
28762;SDS011;15918;51.270;6.522;2022-10-31T16:25:54;13.95;;;5.43;;
28762;SDS011;15918;51.270;6.522;2022-10-31T16:28:21;10.20;;;5.07;;
28762;SDS011;15918;51.270;6.522;2022-10-31T16:30:49;10.63;;;5.70;;
28762;SDS011;15918;51.270;6.522;2022-10-31T16:35:56;11.70;;;5.82;;
28762;SDS011;15918;51.270;6.522;2022-10-31T16:38:22;12.57;;;5.93;;
28762;SDS011;15918;51.270;6.522;2022-10-31T16:40:49;13.70;;;6.30;;
28762;SDS011;15918;51.270;6.522;2022-10-31T16:43:16;11.35;;;5.80;;
28762;SDS011;15918;51.270;6.522;2022-10-31T16:45:47;11.32;;;5.22;;
28762;SDS011;15918;51.270;6.522;2022-10-31T16:48:16;15.45;;;5.88;;
28762;SDS011;15918;51.270;6.522;2022-10-31T16:50:47;10.07;;;5.88;;
28762;SDS011;15918;51.270;6.522;2022-10-31T16:53:15;9.88;;;5.05;;
28762;SDS011;15918;51.270;6.522;2022-10-31T16:55:42;11.05;;;6.15;;
28762;SDS011;15918;51.270;6.522;2022-10-31T16:58:26;14.13;;;6.23;;
28762;SDS011;15918;51.270;6.522;2022-10-31T17:00:54;12.25;;;5.53;;
28762;SDS011;15918;51.270;6.522;2022-10-31T17:03:21;13.77;;;5.32;;